sensor_id;sensor_type;location;lat;lon;timestamp;pressure;altitude;pressure_sealevel;temperature;humidity
46211;BME280;52144;48.040;-1.594;2023-09-30T00:00:34;102067.59;;;17.09;86.92
46211;BME280;52144;48.040;-1.594;2023-09-30T00:03:03;102081.06;;;17.09;87.20
46211;BME280;52144;48.040;-1.594;2023-09-30T00:05:31;102083.38;;;17.17;87.63
46211;BME280;52144;48.040;-1.594;2023-09-30T00:08:00;102097.38;;;17.41;87.43
46211;BME280;52144;48.040;-1.594;2023-09-30T00:10:28;102099.47;;;17.69;86.55
46211;BME280;52144;48.040;-1.594;2023-09-30T00:12:56;102082.47;;;17.84;84.49
46211;BME280;52144;48.040;-1.594;2023-09-30T00:15:25;102094.34;;;17.80;85.84
46211;BME280;52144;48.040;-1.594;2023-09-30T00:17:53;102098.41;;;17.72;86.97
46211;BME280;52144;48.040;-1.594;2023-09-30T00:20:21;102113.72;;;17.71;86.24
46211;BME280;52144;48.040;-1.594;2023-09-30T00:22:49;102104.03;;;17.84;85.52
46211;BME280;52144;48.040;-1.594;2023-09-30T00:25:18;102101.56;;;17.80;84.59
46211;BME280;52144;48.040;-1.594;2023-09-30T00:27:47;102099.91;;;17.77;85.71
46211;BME280;52144;48.040;-1.594;2023-09-30T00:30:15;102101.56;;;17.80;86.08
46211;BME280;52144;48.040;-1.594;2023-09-30T00:32:43;102109.47;;;18.00;84.81
46211;BME280;52144;48.040;-1.594;2023-09-30T00:35:11;102116.38;;;18.22;84.59
46211;BME280;52144;48.040;-1.594;2023-09-30T00:37:40;102109.94;;;18.40;83.67
46211;BME280;52144;48.040;-1.594;2023-09-30T00:40:09;102119.69;;;18.27;84.70
46211;BME280;52144;48.040;-1.594;2023-09-30T00:42:40;102133.69;;;18.18;84.18
46211;BME280;52144;48.040;-1.594;2023-09-30T00:45:09;102138.47;;;18.13;84.74
46211;BME280;52144;48.040;-1.594;2023-09-30T00:47:37;102138.19;;;18.17;85.13
46211;BME280;52144;48.040;-1.594;2023-09-30T00:50:06;102148.56;;;18.25;85.20
46211;BME280;52144;48.040;-1.594;2023-09-30T00:52:38;102160.59;;;18.35;85.54
46211;BME280;52144;48.040;-1.594;2023-09-30T00:55:07;102156.84;;;18.22;84.50
46211;BME280;52144;48.040;-1.594;2023-09-30T00:57:39;102159.84;;;17.82;87.72
46211;BME280;52144;48.040;-1.594;2023-09-30T01:00:08;102149.88;;;18.18;87.17
46211;BME280;52144;48.040;-1.594;2023-09-30T01:02:39;102142.31;;;18.24;85.92
46211;BME280;52144;48.040;-1.594;2023-09-30T01:05:07;102142.22;;;18.26;84.67
46211;BME280;52144;48.040;-1.594;2023-09-30T01:07:36;102139.34;;;18.29;85.24
46211;BME280;52144;48.040;-1.594;2023-09-30T01:10:04;102157.03;;;18.35;85.51
46211;BME280;52144;48.040;-1.594;2023-09-30T01:12:32;102142.47;;;18.37;84.06
46211;BME280;52144;48.040;-1.594;2023-09-30T01:15:03;102134.81;;;18.45;84.92
46211;BME280;52144;48.040;-1.594;2023-09-30T01:17:34;102126.28;;;18.37;84.24
46211;BME280;52144;48.040;-1.594;2023-09-30T01:20:02;102128.06;;;18.38;84.93
46211;BME280;52144;48.040;-1.594;2023-09-30T01:22:32;102129.41;;;18.45;85.17
46211;BME280;52144;48.040;-1.594;2023-09-30T01:25:00;102125.78;;;18.47;84.03
46211;BME280;52144;48.040;-1.594;2023-09-30T01:27:28;102141.00;;;18.48;84.76
46211;BME280;52144;48.040;-1.594;2023-09-30T01:29:56;102138.56;;;18.59;83.43
46211;BME280;52144;48.040;-1.594;2023-09-30T01:32:25;102124.91;;;18.46;83.45
46211;BME280;52144;48.040;-1.594;2023-09-30T01:34:53;102125.75;;;18.15;85.10
46211;BME280;52144;48.040;-1.594;2023-09-30T01:37:21;102128.34;;;18.00;86.73
46211;BME280;52144;48.040;-1.594;2023-09-30T01:39:50;102133.06;;;18.13;87.15
46211;BME280;52144;48.040;-1.594;2023-09-30T01:42:21;102119.75;;;18.41;85.70
46211;BME280;52144;48.040;-1.594;2023-09-30T01:44:49;102117.16;;;18.56;84.56
46211;BME280;52144;48.040;-1.594;2023-09-30T01:47:17;102108.59;;;18.63;83.07
46211;BME280;52144;48.040;-1.594;2023-09-30T01:49:44;102110.72;;;18.58;83.35
46211;BME280;52144;48.040;-1.594;2023-09-30T01:52:12;102096.81;;;18.34;84.94
46211;BME280;52144;48.040;-1.594;2023-09-30T01:54:40;102095.22;;;18.30;86.34
46211;BME280;52144;48.040;-1.594;2023-09-30T01:57:09;102102.69;;;18.25;86.47
46211;BME280;52144;48.040;-1.594;2023-09-30T01:59:37;102112.13;;;18.18;86.41
46211;BME280;52144;48.040;-1.594;2023-09-30T02:02:05;102105.75;;;18.19;86.70
46211;BME280;52144;48.040;-1.594;2023-09-30T02:04:33;102109.91;;;18.09;87.48
46211;BME280;52144;48.040;-1.594;2023-09-30T02:07:01;102100.34;;;18.19;86.62
46211;BME280;52144;48.040;-1.594;2023-09-30T02:09:29;102103.03;;;17.87;87.67
46211;BME280;52144;48.040;-1.594;2023-09-30T02:11:57;102108.00;;;18.11;89.38
46211;BME280;52144;48.040;-1.594;2023-09-30T02:14:26;102095.31;;;18.29;86.64
46211;BME280;52144;48.040;-1.594;2023-09-30T02:16:54;102089.84;;;18.46;86.30
46211;BME280;52144;48.040;-1.594;2023-09-30T02:19:22;102088.59;;;18.52;84.65
46211;BME280;52144;48.040;-1.594;2023-09-30T02:21:49;102095.47;;;18.25;85.52
46211;BME280;52144;48.040;-1.594;2023-09-30T02:24:17;102092.78;;;18.10;86.31
46211;BME280;52144;48.040;-1.594;2023-09-30T02:26:45;102075.97;;;18.04;87.06
46211;BME280;52144;48.040;-1.594;2023-09-30T02:29:13;102075.47;;;18.14;86.40
46211;BME280;52144;48.040;-1.594;2023-09-30T02:31:42;102069.97;;;18.15;85.30
46211;BME280;52144;48.040;-1.594;2023-09-30T02:34:10;102069.75;;;18.20;84.50
46211;BME280;52144;48.040;-1.594;2023-09-30T02:36:38;102068.16;;;18.16;84.91
46211;BME280;52144;48.040;-1.594;2023-09-30T02:39:06;102074.81;;;17.93;86.96
46211;BME280;52144;48.040;-1.594;2023-09-30T02:41:35;102058.22;;;18.00;87.51
46211;BME280;52144;48.040;-1.594;2023-09-30T02:44:04;102063.28;;;18.07;86.36
46211;BME280;52144;48.040;-1.594;2023-09-30T02:46:32;102060.00;;;18.01;85.21
46211;BME280;52144;48.040;-1.594;2023-09-30T02:49:02;102065.88;;;17.92;86.31
46211;BME280;52144;48.040;-1.594;2023-09-30T02:51:31;102054.31;;;18.06;86.27
46211;BME280;52144;48.040;-1.594;2023-09-30T02:53:59;102052.84;;;18.16;85.50
46211;BME280;52144;48.040;-1.594;2023-09-30T02:56:27;102065.00;;;18.23;85.07
46211;BME280;52144;48.040;-1.594;2023-09-30T02:58:57;102045.19;;;18.09;84.29
46211;BME280;52144;48.040;-1.594;2023-09-30T03:01:26;102051.19;;;17.98;86.20
46211;BME280;52144;48.040;-1.594;2023-09-30T03:03:54;102058.75;;;18.07;86.28
46211;BME280;52144;48.040;-1.594;2023-09-30T03:06:24;102061.56;;;18.06;84.64
46211;BME280;52144;48.040;-1.594;2023-09-30T03:08:52;102073.63;;;17.98;86.03
46211;BME280;52144;48.040;-1.594;2023-09-30T03:11:20;102074.84;;;18.09;87.21
46211;BME280;52144;48.040;-1.594;2023-09-30T03:13:49;102065.13;;;18.06;86.98
46211;BME280;52144;48.040;-1.594;2023-09-30T03:16:17;102058.66;;;18.09;85.86
46211;BME280;52144;48.040;-1.594;2023-09-30T03:18:46;102062.91;;;17.97;85.06
46211;BME280;52144;48.040;-1.594;2023-09-30T03:21:15;102047.56;;;17.81;86.49
46211;BME280;52144;48.040;-1.594;2023-09-30T03:23:45;102037.97;;;17.93;87.58
46211;BME280;52144;48.040;-1.594;2023-09-30T03:26:13;102013.53;;;17.96;87.25
46211;BME280;52144;48.040;-1.594;2023-09-30T03:28:42;101988.53;;;17.77;86.94
46211;BME280;52144;48.040;-1.594;2023-09-30T03:31:09;101994.75;;;17.61;88.04
46211;BME280;52144;48.040;-1.594;2023-09-30T03:33:37;102008.47;;;17.41;85.80
46211;BME280;52144;48.040;-1.594;2023-09-30T03:36:08;102006.03;;;17.19;87.95
46211;BME280;52144;48.040;-1.594;2023-09-30T03:38:37;101998.50;;;17.25;88.14
46211;BME280;52144;48.040;-1.594;2023-09-30T03:41:07;102014.19;;;17.17;83.74
46211;BME280;52144;48.040;-1.594;2023-09-30T03:43:35;102024.97;;;17.17;82.86
46211;BME280;52144;48.040;-1.594;2023-09-30T03:46:07;102026.81;;;17.17;82.99
46211;BME280;52144;48.040;-1.594;2023-09-30T03:48:36;102036.53;;;17.19;82.12
46211;BME280;52144;48.040;-1.594;2023-09-30T03:51:09;102035.59;;;17.03;87.77
46211;BME280;52144;48.040;-1.594;2023-09-30T03:53:40;102032.19;;;16.99;89.12
46211;BME280;52144;48.040;-1.594;2023-09-30T03:56:11;102038.75;;;17.11;87.70
46211;BME280;52144;48.040;-1.594;2023-09-30T03:58:39;102034.03;;;17.16;87.24
46211;BME280;52144;48.040;-1.594;2023-09-30T04:01:08;102037.31;;;17.21;86.11
46211;BME280;52144;48.040;-1.594;2023-09-30T04:03:38;102031.94;;;17.21;87.30
46211;BME280;52144;48.040;-1.594;2023-09-30T04:06:06;102042.25;;;17.13;86.95
46211;BME280;52144;48.040;-1.594;2023-09-30T04:08:34;102042.63;;;17.05;89.34
46211;BME280;52144;48.040;-1.594;2023-09-30T04:11:02;102042.44;;;17.10;88.73
46211;BME280;52144;48.040;-1.594;2023-09-30T04:13:32;102042.81;;;17.20;88.02
46211;BME280;52144;48.040;-1.594;2023-09-30T04:15:59;102053.41;;;17.40;89.24
46211;BME280;52144;48.040;-1.594;2023-09-30T04:18:27;102033.22;;;17.14;86.80
46211;BME280;52144;48.040;-1.594;2023-09-30T04:20:55;102030.69;;;17.11;89.69
46211;BME280;52144;48.040;-1.594;2023-09-30T04:23:23;102020.47;;;17.18;88.82
46211;BME280;52144;48.040;-1.594;2023-09-30T04:25:51;102019.97;;;17.27;88.97
46211;BME280;52144;48.040;-1.594;2023-09-30T04:28:18;102004.53;;;17.31;89.16
46211;BME280;52144;48.040;-1.594;2023-09-30T04:30:49;102005.34;;;17.49;87.76
46211;BME280;52144;48.040;-1.594;2023-09-30T04:33:18;102002.03;;;17.43;86.61
46211;BME280;52144;48.040;-1.594;2023-09-30T04:35:51;102007.81;;;17.36;87.51
46211;BME280;52144;48.040;-1.594;2023-09-30T04:38:19;102020.84;;;17.28;86.96
46211;BME280;52144;48.040;-1.594;2023-09-30T04:40:47;102018.59;;;17.36;87.79
46211;BME280;52144;48.040;-1.594;2023-09-30T04:43:17;102011.31;;;17.38;87.75
46211;BME280;52144;48.040;-1.594;2023-09-30T04:45:45;102010.16;;;17.26;87.58
46211;BME280;52144;48.040;-1.594;2023-09-30T04:48:17;101995.81;;;17.25;89.59
46211;BME280;52144;48.040;-1.594;2023-09-30T04:50:45;101988.50;;;17.28;88.06
46211;BME280;52144;48.040;-1.594;2023-09-30T04:53:13;101999.81;;;17.18;87.95
46211;BME280;52144;48.040;-1.594;2023-09-30T04:55:42;101994.34;;;17.02;89.64
46211;BME280;52144;48.040;-1.594;2023-09-30T04:58:10;101981.34;;;17.11;89.75
46211;BME280;52144;48.040;-1.594;2023-09-30T05:00:39;101983.97;;;17.12;89.08
46211;BME280;52144;48.040;-1.594;2023-09-30T05:03:07;101987.38;;;17.16;89.45
46211;BME280;52144;48.040;-1.594;2023-09-30T05:05:36;101996.13;;;17.19;88.14
46211;BME280;52144;48.040;-1.594;2023-09-30T05:08:04;101998.63;;;17.07;86.67
46211;BME280;52144;48.040;-1.594;2023-09-30T05:10:32;102004.34;;;17.00;87.49
46211;BME280;52144;48.040;-1.594;2023-09-30T05:13:00;102009.53;;;17.03;88.34
46211;BME280;52144;48.040;-1.594;2023-09-30T05:15:29;102018.59;;;17.02;88.44
46211;BME280;52144;48.040;-1.594;2023-09-30T05:17:59;102021.66;;;17.12;88.39
46211;BME280;52144;48.040;-1.594;2023-09-30T05:20:27;102020.63;;;17.15;87.87
46211;BME280;52144;48.040;-1.594;2023-09-30T05:22:56;102027.44;;;17.22;87.81
46211;BME280;52144;48.040;-1.594;2023-09-30T05:25:24;102025.28;;;17.11;85.07
46211;BME280;52144;48.040;-1.594;2023-09-30T05:27:53;102009.94;;;17.13;87.76
46211;BME280;52144;48.040;-1.594;2023-09-30T05:30:21;102014.31;;;17.16;86.13
46211;BME280;52144;48.040;-1.594;2023-09-30T05:32:49;102020.88;;;16.93;84.02
46211;BME280;52144;48.040;-1.594;2023-09-30T05:35:19;102023.88;;;16.87;85.98
46211;BME280;52144;48.040;-1.594;2023-09-30T05:37:49;102030.28;;;17.01;87.30
46211;BME280;52144;48.040;-1.594;2023-09-30T05:40:20;102024.44;;;16.93;85.38
46211;BME280;52144;48.040;-1.594;2023-09-30T05:42:52;102019.97;;;16.75;84.68
46211;BME280;52144;48.040;-1.594;2023-09-30T05:45:22;102018.22;;;16.56;86.89
46211;BME280;52144;48.040;-1.594;2023-09-30T05:47:51;102013.31;;;16.47;87.11
46211;BME280;52144;48.040;-1.594;2023-09-30T05:50:20;102009.22;;;16.21;88.09
46211;BME280;52144;48.040;-1.594;2023-09-30T05:52:52;102016.19;;;16.25;89.29
46211;BME280;52144;48.040;-1.594;2023-09-30T05:55:21;102022.19;;;16.30;90.32
46211;BME280;52144;48.040;-1.594;2023-09-30T05:57:51;102024.09;;;16.28;89.56
46211;BME280;52144;48.040;-1.594;2023-09-30T06:00:19;102019.50;;;16.13;87.94
46211;BME280;52144;48.040;-1.594;2023-09-30T06:02:49;102020.00;;;16.02;89.29
46211;BME280;52144;48.040;-1.594;2023-09-30T06:05:18;102021.09;;;15.98;90.40
46211;BME280;52144;48.040;-1.594;2023-09-30T06:07:46;102019.00;;;16.04;90.16
46211;BME280;52144;48.040;-1.594;2023-09-30T06:10:14;102023.22;;;16.28;90.51
46211;BME280;52144;48.040;-1.594;2023-09-30T06:12:47;102023.00;;;16.32;89.20
46211;BME280;52144;48.040;-1.594;2023-09-30T06:15:15;102017.44;;;16.18;86.90
46211;BME280;52144;48.040;-1.594;2023-09-30T06:17:48;102024.41;;;16.22;89.50
46211;BME280;52144;48.040;-1.594;2023-09-30T06:20:16;102022.50;;;16.24;88.55
46211;BME280;52144;48.040;-1.594;2023-09-30T06:22:45;102024.69;;;16.16;88.22
46211;BME280;52144;48.040;-1.594;2023-09-30T06:25:14;102036.34;;;16.16;88.77
46211;BME280;52144;48.040;-1.594;2023-09-30T06:27:43;102037.78;;;16.23;89.24
46211;BME280;52144;48.040;-1.594;2023-09-30T06:30:13;102047.38;;;16.29;88.38
46211;BME280;52144;48.040;-1.594;2023-09-30T06:32:43;102059.66;;;16.35;87.74
46211;BME280;52144;48.040;-1.594;2023-09-30T06:35:12;102061.63;;;16.31;87.94
46211;BME280;52144;48.040;-1.594;2023-09-30T06:37:40;102064.13;;;16.34;87.59
46211;BME280;52144;48.040;-1.594;2023-09-30T06:40:10;102061.38;;;16.36;87.57
46211;BME280;52144;48.040;-1.594;2023-09-30T06:42:39;102060.03;;;16.27;86.85
46211;BME280;52144;48.040;-1.594;2023-09-30T06:45:09;102060.81;;;16.29;88.91
46211;BME280;52144;48.040;-1.594;2023-09-30T06:47:39;102063.81;;;16.23;88.33
46211;BME280;52144;48.040;-1.594;2023-09-30T06:50:09;102058.41;;;16.42;88.71
46211;BME280;52144;48.040;-1.594;2023-09-30T06:52:40;102067.44;;;16.41;86.96
46211;BME280;52144;48.040;-1.594;2023-09-30T06:55:09;102077.59;;;16.34;88.73
46211;BME280;52144;48.040;-1.594;2023-09-30T06:57:40;102068.66;;;16.53;90.07
46211;BME280;52144;48.040;-1.594;2023-09-30T07:00:09;102068.25;;;16.60;89.65
46211;BME280;52144;48.040;-1.594;2023-09-30T07:02:40;102075.09;;;16.85;89.94
46211;BME280;52144;48.040;-1.594;2023-09-30T07:05:10;102073.22;;;17.04;88.51
46211;BME280;52144;48.040;-1.594;2023-09-30T07:07:38;102072.19;;;17.24;88.52
46211;BME280;52144;48.040;-1.594;2023-09-30T07:10:08;102073.41;;;17.52;87.30
46211;BME280;52144;48.040;-1.594;2023-09-30T07:12:36;102069.44;;;17.59;86.50
46211;BME280;52144;48.040;-1.594;2023-09-30T07:15:04;102068.78;;;17.72;86.31
46211;BME280;52144;48.040;-1.594;2023-09-30T07:17:33;102076.06;;;17.87;86.47
46211;BME280;52144;48.040;-1.594;2023-09-30T07:20:02;102075.19;;;18.02;84.60
46211;BME280;52144;48.040;-1.594;2023-09-30T07:22:32;102088.00;;;18.15;84.10
46211;BME280;52144;48.040;-1.594;2023-09-30T07:25:15;102084.16;;;18.19;83.36
46211;BME280;52144;48.040;-1.594;2023-09-30T07:27:44;102080.78;;;17.99;83.88
46211;BME280;52144;48.040;-1.594;2023-09-30T07:30:13;102076.50;;;17.95;85.05
46211;BME280;52144;48.040;-1.594;2023-09-30T07:32:42;102077.97;;;17.85;85.97
46211;BME280;52144;48.040;-1.594;2023-09-30T07:35:11;102088.41;;;17.91;86.14
46211;BME280;52144;48.040;-1.594;2023-09-30T07:37:40;102089.84;;;17.81;84.87
46211;BME280;52144;48.040;-1.594;2023-09-30T07:40:09;102085.16;;;17.84;87.20
46211;BME280;52144;48.040;-1.594;2023-09-30T07:42:37;102088.09;;;17.80;85.89
46211;BME280;52144;48.040;-1.594;2023-09-30T07:45:07;102094.41;;;17.96;86.88
46211;BME280;52144;48.040;-1.594;2023-09-30T07:47:35;102079.88;;;17.99;87.09
46211;BME280;52144;48.040;-1.594;2023-09-30T07:50:03;102088.75;;;18.01;86.96
46211;BME280;52144;48.040;-1.594;2023-09-30T07:52:38;102093.75;;;18.24;86.52
46211;BME280;52144;48.040;-1.594;2023-09-30T07:55:08;102082.69;;;18.29;85.96
46211;BME280;52144;48.040;-1.594;2023-09-30T07:57:37;102094.25;;;18.47;86.60
46211;BME280;52144;48.040;-1.594;2023-09-30T08:00:07;102084.59;;;18.59;84.95
46211;BME280;52144;48.040;-1.594;2023-09-30T08:02:41;102086.38;;;18.74;85.93
46211;BME280;52144;48.040;-1.594;2023-09-30T08:05:10;102079.63;;;18.67;84.28
46211;BME280;52144;48.040;-1.594;2023-09-30T08:07:39;102082.97;;;18.87;84.88
46211;BME280;52144;48.040;-1.594;2023-09-30T08:10:09;102093.75;;;18.56;85.45
46211;BME280;52144;48.040;-1.594;2023-09-30T08:12:40;102081.97;;;18.57;85.91
46211;BME280;52144;48.040;-1.594;2023-09-30T08:15:09;102091.47;;;18.64;86.13
46211;BME280;52144;48.040;-1.594;2023-09-30T08:17:39;102089.72;;;18.63;85.21
46211;BME280;52144;48.040;-1.594;2023-09-30T08:20:08;102087.16;;;18.92;85.75
46211;BME280;52144;48.040;-1.594;2023-09-30T08:22:36;102090.44;;;19.13;85.45
46211;BME280;52144;48.040;-1.594;2023-09-30T08:25:06;102092.19;;;19.29;83.38
46211;BME280;52144;48.040;-1.594;2023-09-30T08:27:36;102094.72;;;19.46;81.81
46211;BME280;52144;48.040;-1.594;2023-09-30T08:30:05;102085.59;;;19.18;82.27
46211;BME280;52144;48.040;-1.594;2023-09-30T08:32:34;102078.75;;;19.27;80.73
46211;BME280;52144;48.040;-1.594;2023-09-30T08:35:03;102085.56;;;19.49;82.17
46211;BME280;52144;48.040;-1.594;2023-09-30T08:37:31;102088.28;;;19.18;83.32
46211;BME280;52144;48.040;-1.594;2023-09-30T08:39:59;102086.78;;;19.43;81.60
46211;BME280;52144;48.040;-1.594;2023-09-30T08:42:28;102089.16;;;19.78;79.90
46211;BME280;52144;48.040;-1.594;2023-09-30T08:45:00;102098.63;;;19.99;80.36
46211;BME280;52144;48.040;-1.594;2023-09-30T08:47:28;102091.75;;;20.08;78.34
46211;BME280;52144;48.040;-1.594;2023-09-30T08:49:59;102090.31;;;19.88;78.16
46211;BME280;52144;48.040;-1.594;2023-09-30T08:52:33;102099.31;;;20.03;79.22
46211;BME280;52144;48.040;-1.594;2023-09-30T08:55:07;102094.75;;;20.03;80.22
46211;BME280;52144;48.040;-1.594;2023-09-30T08:57:37;102095.16;;;19.97;77.82
46211;BME280;52144;48.040;-1.594;2023-09-30T09:00:09;102099.03;;;19.93;80.02
46211;BME280;52144;48.040;-1.594;2023-09-30T09:02:40;102088.13;;;20.36;78.36
46211;BME280;52144;48.040;-1.594;2023-09-30T09:05:09;102089.22;;;20.61;74.68
46211;BME280;52144;48.040;-1.594;2023-09-30T09:07:38;102079.97;;;20.78;74.02
46211;BME280;52144;48.040;-1.594;2023-09-30T09:10:07;102083.50;;;20.66;74.32
46211;BME280;52144;48.040;-1.594;2023-09-30T09:12:37;102077.81;;;20.83;76.03
46211;BME280;52144;48.040;-1.594;2023-09-30T09:15:07;102080.19;;;20.33;76.93
46211;BME280;52144;48.040;-1.594;2023-09-30T09:17:43;102069.69;;;20.70;75.03
46211;BME280;52144;48.040;-1.594;2023-09-30T09:20:13;102074.78;;;20.75;75.47
46211;BME280;52144;48.040;-1.594;2023-09-30T09:22:47;102064.13;;;20.44;77.66
46211;BME280;52144;48.040;-1.594;2023-09-30T09:25:17;102077.06;;;20.81;75.34
46211;BME280;52144;48.040;-1.594;2023-09-30T09:27:46;102078.53;;;21.12;74.50
46211;BME280;52144;48.040;-1.594;2023-09-30T09:30:18;102080.09;;;21.29;72.20
46211;BME280;52144;48.040;-1.594;2023-09-30T09:33:02;102076.97;;;21.48;72.56
46211;BME280;52144;48.040;-1.594;2023-09-30T09:35:32;102072.50;;;21.73;72.68
46211;BME280;52144;48.040;-1.594;2023-09-30T09:38:01;102077.38;;;21.93;71.54
46211;BME280;52144;48.040;-1.594;2023-09-30T09:40:32;102075.53;;;21.81;69.53
46211;BME280;52144;48.040;-1.594;2023-09-30T09:43:03;102076.22;;;21.59;69.65
46211;BME280;52144;48.040;-1.594;2023-09-30T09:45:33;102078.16;;;21.57;70.39
46211;BME280;52144;48.040;-1.594;2023-09-30T09:48:01;102076.22;;;21.72;70.32
46211;BME280;52144;48.040;-1.594;2023-09-30T09:50:31;102078.81;;;21.60;69.61
46211;BME280;52144;48.040;-1.594;2023-09-30T09:52:59;102078.09;;;22.08;69.62
46211;BME280;52144;48.040;-1.594;2023-09-30T09:55:27;102078.06;;;22.34;68.32
46211;BME280;52144;48.040;-1.594;2023-09-30T09:57:55;102074.38;;;22.35;67.92
46211;BME280;52144;48.040;-1.594;2023-09-30T10:00:27;102065.91;;;22.27;67.07
46211;BME280;52144;48.040;-1.594;2023-09-30T10:02:56;102063.50;;;22.22;67.96
46211;BME280;52144;48.040;-1.594;2023-09-30T10:05:25;102069.16;;;22.32;68.73
46211;BME280;52144;48.040;-1.594;2023-09-30T10:07:54;102063.06;;;22.41;66.90
46211;BME280;52144;48.040;-1.594;2023-09-30T10:10:24;102059.78;;;22.36;68.71
46211;BME280;52144;48.040;-1.594;2023-09-30T10:12:52;102062.72;;;22.57;68.31
46211;BME280;52144;48.040;-1.594;2023-09-30T10:15:39;102053.09;;;22.53;67.10
46211;BME280;52144;48.040;-1.594;2023-09-30T10:18:09;102051.59;;;22.49;68.77
46211;BME280;52144;48.040;-1.594;2023-09-30T10:20:42;102053.78;;;22.68;68.67
46211;BME280;52144;48.040;-1.594;2023-09-30T10:23:22;102047.16;;;22.83;68.42
46211;BME280;52144;48.040;-1.594;2023-09-30T10:25:52;102051.00;;;22.92;67.45
46211;BME280;52144;48.040;-1.594;2023-09-30T10:28:37;102053.72;;;22.80;67.30
46211;BME280;52144;48.040;-1.594;2023-09-30T10:31:14;102058.28;;;23.04;65.96
46211;BME280;52144;48.040;-1.594;2023-09-30T10:34:21;102056.56;;;23.14;66.37
46211;BME280;52144;48.040;-1.594;2023-09-30T10:36:49;102049.28;;;23.15;67.16
46211;BME280;52144;48.040;-1.594;2023-09-30T10:39:55;102059.41;;;23.24;67.08
46211;BME280;52144;48.040;-1.594;2023-09-30T10:42:46;102045.34;;;23.53;63.50
46211;BME280;52144;48.040;-1.594;2023-09-30T10:45:42;102049.69;;;23.67;64.58
46211;BME280;52144;48.040;-1.594;2023-09-30T10:48:34;102044.75;;;23.72;63.73
46211;BME280;52144;48.040;-1.594;2023-09-30T10:51:13;102033.75;;;23.62;62.98
46211;BME280;52144;48.040;-1.594;2023-09-30T10:53:44;102030.28;;;23.60;64.47
46211;BME280;52144;48.040;-1.594;2023-09-30T10:56:13;102026.63;;;23.03;66.26
46211;BME280;52144;48.040;-1.594;2023-09-30T10:58:43;102026.69;;;23.48;65.67
46211;BME280;52144;48.040;-1.594;2023-09-30T11:01:12;102033.13;;;23.36;64.92
46211;BME280;52144;48.040;-1.594;2023-09-30T11:03:42;102032.25;;;23.35;66.32
46211;BME280;52144;48.040;-1.594;2023-09-30T11:06:12;102039.31;;;23.49;63.53
46211;BME280;52144;48.040;-1.594;2023-09-30T11:08:46;102038.47;;;23.71;63.73
46211;BME280;52144;48.040;-1.594;2023-09-30T11:11:14;102029.19;;;23.74;64.11
46211;BME280;52144;48.040;-1.594;2023-09-30T11:13:42;102032.63;;;23.42;65.61
46211;BME280;52144;48.040;-1.594;2023-09-30T11:16:10;102035.00;;;23.69;64.93
46211;BME280;52144;48.040;-1.594;2023-09-30T11:18:37;102033.38;;;23.33;64.90
46211;BME280;52144;48.040;-1.594;2023-09-30T11:21:08;102038.09;;;23.98;63.96
46211;BME280;52144;48.040;-1.594;2023-09-30T11:23:37;102025.38;;;24.31;62.64
46211;BME280;52144;48.040;-1.594;2023-09-30T11:26:05;102029.31;;;24.50;61.74
46211;BME280;52144;48.040;-1.594;2023-09-30T11:28:40;102030.03;;;24.63;61.16
46211;BME280;52144;48.040;-1.594;2023-09-30T11:31:10;102031.38;;;24.46;59.87
46211;BME280;52144;48.040;-1.594;2023-09-30T11:33:50;102024.28;;;24.66;59.20
46211;BME280;52144;48.040;-1.594;2023-09-30T11:36:21;102023.88;;;24.50;61.18
46211;BME280;52144;48.040;-1.594;2023-09-30T11:38:51;102014.81;;;24.49;60.47
46211;BME280;52144;48.040;-1.594;2023-09-30T11:41:20;102019.13;;;24.63;59.51
46211;BME280;52144;48.040;-1.594;2023-09-30T11:43:59;102014.28;;;24.88;59.26
46211;BME280;52144;48.040;-1.594;2023-09-30T11:46:28;102015.06;;;24.57;59.16
46211;BME280;52144;48.040;-1.594;2023-09-30T11:48:57;102011.53;;;24.23;60.40
46211;BME280;52144;48.040;-1.594;2023-09-30T11:51:28;102008.16;;;23.76;60.83
46211;BME280;52144;48.040;-1.594;2023-09-30T11:53:56;102006.28;;;24.42;61.56
46211;BME280;52144;48.040;-1.594;2023-09-30T11:56:25;102010.75;;;24.76;61.62
46211;BME280;52144;48.040;-1.594;2023-09-30T11:58:57;102010.94;;;25.05;57.98
46211;BME280;52144;48.040;-1.594;2023-09-30T12:01:25;102015.13;;;24.88;57.97
46211;BME280;52144;48.040;-1.594;2023-09-30T12:03:57;102008.94;;;25.07;58.68
46211;BME280;52144;48.040;-1.594;2023-09-30T12:06:27;102009.59;;;24.57;58.56
46211;BME280;52144;48.040;-1.594;2023-09-30T12:08:55;101993.00;;;24.06;60.28
46211;BME280;52144;48.040;-1.594;2023-09-30T12:11:24;101987.16;;;24.21;60.29
46211;BME280;52144;48.040;-1.594;2023-09-30T12:13:52;101986.19;;;24.22;59.31
46211;BME280;52144;48.040;-1.594;2023-09-30T12:16:20;101994.31;;;24.87;58.86
46211;BME280;52144;48.040;-1.594;2023-09-30T12:18:49;101996.22;;;24.54;59.08
46211;BME280;52144;48.040;-1.594;2023-09-30T12:21:17;101995.25;;;25.18;57.23
46211;BME280;52144;48.040;-1.594;2023-09-30T12:23:48;101987.25;;;25.57;56.38
46211;BME280;52144;48.040;-1.594;2023-09-30T12:26:18;101988.88;;;25.08;57.20
46211;BME280;52144;48.040;-1.594;2023-09-30T12:28:46;101987.22;;;25.48;57.95
46211;BME280;52144;48.040;-1.594;2023-09-30T12:31:14;101984.41;;;25.59;57.96
46211;BME280;52144;48.040;-1.594;2023-09-30T12:33:44;101989.94;;;25.48;55.32
46211;BME280;52144;48.040;-1.594;2023-09-30T12:36:17;101979.38;;;25.64;56.81
46211;BME280;52144;48.040;-1.594;2023-09-30T12:38:45;101981.38;;;26.02;58.90
46211;BME280;52144;48.040;-1.594;2023-09-30T12:41:14;101976.66;;;26.43;54.93
46211;BME280;52144;48.040;-1.594;2023-09-30T12:43:42;101974.97;;;26.62;55.34
46211;BME280;52144;48.040;-1.594;2023-09-30T12:46:10;101974.50;;;26.76;54.76
46211;BME280;52144;48.040;-1.594;2023-09-30T12:48:40;101967.88;;;26.89;54.38
46211;BME280;52144;48.040;-1.594;2023-09-30T12:51:08;101963.59;;;26.37;54.03
46211;BME280;52144;48.040;-1.594;2023-09-30T12:53:36;101967.25;;;25.47;55.30